createdAt,value
2018-04-07T00:00:38.308Z,4.47
2018-04-07T00:03:06.696Z,4.50
2018-04-07T00:05:34.468Z,4.73
2018-04-07T00:08:02.232Z,4.60
2018-04-07T00:10:29.772Z,4.60
2018-04-07T00:12:57.364Z,5.10
2018-04-07T00:15:25.004Z,4.53
2018-04-07T00:17:52.547Z,4.10
2018-04-07T00:20:20.428Z,4.30
2018-04-07T00:22:50.034Z,3.97
2018-04-07T00:25:17.624Z,4.37
2018-04-07T00:27:45.188Z,4.33
2018-04-07T00:30:13.168Z,4.20
2018-04-07T00:32:40.721Z,4.17
2018-04-07T00:35:08.280Z,4.47
2018-04-07T00:37:35.864Z,3.80
2018-04-07T00:40:03.472Z,4.53
2018-04-07T00:42:31.049Z,4.47
2018-04-07T00:44:58.651Z,3.67
2018-04-07T00:47:26.558Z,3.47
2018-04-07T00:49:54.547Z,3.30
2018-04-07T00:52:22.228Z,3.47
2018-04-07T00:54:49.767Z,3.47
2018-04-07T00:57:18.240Z,3.53
2018-04-07T00:59:45.781Z,3.60
2018-04-07T01:02:13.702Z,3.43
2018-04-07T01:04:42.480Z,3.40
2018-04-07T01:07:10.024Z,3.53
2018-04-07T01:09:37.869Z,3.60
2018-04-07T01:12:05.505Z,3.87
2018-04-07T01:14:33.048Z,3.40
2018-04-07T01:17:01.019Z,3.30
2018-04-07T01:19:28.633Z,2.93
2018-04-07T01:21:56.217Z,3.50
2018-04-07T01:24:23.812Z,3.10
2018-04-07T01:26:51.758Z,3.63
2018-04-07T01:29:19.325Z,3.70
2018-04-07T01:31:47.061Z,3.07
2018-04-07T01:34:14.615Z,2.90
2018-04-07T01:36:42.185Z,3.33
2018-04-07T01:39:10.406Z,3.20
2018-04-07T01:41:38.378Z,3.20
2018-04-07T01:44:05.964Z,3.10
2018-04-07T01:46:33.560Z,2.87
2018-04-07T01:49:01.104Z,3.17
2018-04-07T01:51:28.917Z,3.00
2018-04-07T01:53:56.512Z,2.73
2018-04-07T01:56:24.067Z,2.90
2018-04-07T01:58:52.652Z,2.80
2018-04-07T02:01:20.199Z,3.30
2018-04-07T02:03:48.796Z,3.07
2018-04-07T02:06:16.340Z,2.60
2018-04-07T02:08:43.892Z,2.70
2018-04-07T02:11:12.144Z,2.90
2018-04-07T02:13:39.702Z,3.20
2018-04-07T02:16:07.787Z,2.90
2018-04-07T02:18:35.336Z,2.90
2018-04-07T02:21:03.058Z,3.20
2018-04-07T02:23:30.624Z,3.30
2018-04-07T02:25:58.205Z,2.63
2018-04-07T02:28:26.011Z,2.47
2018-04-07T02:30:53.716Z,2.30
2018-04-07T02:33:21.481Z,3.20
2018-04-07T02:35:49.069Z,2.77
2018-04-07T02:38:16.618Z,2.53
2018-04-07T02:40:44.526Z,2.63
2018-04-07T02:43:12.905Z,2.93
2018-04-07T02:45:40.449Z,3.10
2018-04-07T02:48:08.972Z,2.53
2018-04-07T02:50:36.946Z,2.80
2018-04-07T02:53:05.038Z,2.37
2018-04-07T02:55:32.584Z,2.70
2018-04-07T02:58:01.117Z,2.93
2018-04-07T03:00:28.664Z,2.93
2018-04-07T03:02:56.833Z,2.67
2018-04-07T03:05:24.436Z,2.67
2018-04-07T03:07:52.916Z,2.70
2018-04-07T03:10:20.500Z,2.83
2018-04-07T03:12:48.765Z,2.80
2018-04-07T03:15:16.355Z,2.93
2018-04-07T03:17:43.896Z,2.90
2018-04-07T03:20:11.492Z,3.33
2018-04-07T03:22:39.055Z,2.63
2018-04-07T03:25:06.656Z,2.70
2018-04-07T03:27:34.540Z,2.70
2018-04-07T03:30:02.905Z,2.90
2018-04-07T03:32:30.500Z,3.03
2018-04-07T03:34:58.433Z,2.80
2018-04-07T03:37:26.501Z,3.00
2018-04-07T03:39:54.051Z,2.93
2018-04-07T03:42:21.660Z,3.30
2018-04-07T03:44:49.219Z,3.37
2018-04-07T03:47:17.581Z,3.20
2018-04-07T03:49:45.702Z,3.03
2018-04-07T03:52:13.248Z,3.10
2018-04-07T03:54:41.795Z,3.00
2018-04-07T03:57:09.925Z,3.17
2018-04-07T03:59:38.412Z,3.17
2018-04-07T04:02:06.360Z,3.40
2018-04-07T04:04:34.473Z,3.30
2018-04-07T04:07:02.029Z,2.93
2018-04-07T04:09:30.013Z,3.43
2018-04-07T04:11:57.561Z,3.43
2018-04-07T04:14:25.368Z,3.97
2018-04-07T04:16:53.130Z,3.00
2018-04-07T04:19:21.035Z,3.67
2018-04-07T04:21:49.265Z,3.83
2018-04-07T04:24:16.864Z,3.90
2018-04-07T04:26:44.646Z,4.97
2018-04-07T04:29:12.714Z,5.50
2018-04-07T04:31:40.840Z,4.77
2018-04-07T04:34:08.427Z,4.10
2018-04-07T04:36:36.653Z,4.37
2018-04-07T04:39:04.320Z,4.53
2018-04-07T04:41:32.560Z,4.97
2018-04-07T04:44:00.110Z,5.20
2018-04-07T04:46:27.721Z,5.93
2018-04-07T04:48:55.656Z,6.60
2018-04-07T04:51:23.268Z,7.10
2018-04-07T04:53:50.815Z,7.23
2018-04-07T04:56:18.408Z,6.30
2018-04-07T04:58:46.009Z,8.50
2018-04-07T05:01:13.560Z,5.90
2018-04-07T05:03:41.683Z,4.73
2018-04-07T05:06:10.163Z,5.83
2018-04-07T05:08:37.736Z,5.33
2018-04-07T05:11:05.823Z,5.70
2018-04-07T05:13:33.368Z,4.57
2018-04-07T05:16:01.298Z,5.23
2018-04-07T05:18:28.877Z,4.73
2018-04-07T05:20:58.444Z,5.43
2018-04-07T05:23:26.561Z,5.10
2018-04-07T05:25:54.669Z,4.77
2018-04-07T05:28:23.280Z,5.03
2018-04-07T05:30:50.881Z,4.43
2018-04-07T05:33:18.766Z,4.80
2018-04-07T05:35:48.509Z,4.67
2018-04-07T05:38:16.076Z,4.87
2018-04-07T05:40:43.668Z,4.60
2018-04-07T05:43:11.212Z,4.83
2018-04-07T05:45:38.764Z,4.60
2018-04-07T05:48:06.315Z,4.43
2018-04-07T05:50:33.860Z,3.93
2018-04-07T05:53:01.844Z,4.80
2018-04-07T05:55:30.088Z,4.63
2018-04-07T05:57:57.992Z,4.00
2018-04-07T06:00:25.600Z,4.43
2018-04-07T06:02:53.384Z,4.87
2018-04-07T06:05:21.247Z,4.20
2018-04-07T06:07:49.580Z,4.13
2018-04-07T06:10:17.499Z,4.63
2018-04-07T06:12:45.588Z,4.13
2018-04-07T06:15:13.935Z,4.23
2018-04-07T06:17:41.805Z,4.67
2018-04-07T06:20:09.349Z,4.67
2018-04-07T06:22:36.899Z,4.40
2018-04-07T06:25:04.848Z,4.37
2018-04-07T06:27:33.546Z,4.43
2018-04-07T06:30:01.436Z,5.10
2018-04-07T06:32:29.023Z,4.57
2018-04-07T06:34:56.869Z,3.97
2018-04-07T06:37:25.652Z,5.17
2018-04-07T06:39:54.343Z,4.00
2018-04-07T06:42:22.413Z,3.90
2018-04-07T06:44:50.039Z,4.87
2018-04-07T06:47:18.656Z,4.10
2018-04-07T06:49:47.223Z,4.53
2018-04-07T06:52:16.063Z,3.97
2018-04-07T06:54:43.660Z,4.73
2018-04-07T06:57:11.215Z,4.47
2018-04-07T06:59:39.305Z,4.47
2018-04-07T07:02:08.346Z,4.83
2018-04-07T07:04:36.744Z,5.03
2018-04-07T07:07:04.736Z,4.40
2018-04-07T07:09:33.100Z,5.03
2018-04-07T07:12:02.781Z,5.03
2018-04-07T07:14:30.848Z,5.43
2018-04-07T07:16:59.731Z,5.53
2018-04-07T07:19:28.189Z,5.17
2018-04-07T07:21:56.786Z,3.93
2018-04-07T07:24:24.359Z,5.00
2018-04-07T07:26:51.964Z,5.10
2018-04-07T07:29:20.060Z,5.23
2018-04-07T07:31:47.665Z,5.30
2018-04-07T07:34:16.160Z,5.03
2018-04-07T07:36:44.172Z,4.73
2018-04-07T07:39:12.248Z,5.40
2018-04-07T07:41:40.513Z,5.10
2018-04-07T07:44:08.113Z,4.40
2018-04-07T07:46:36.869Z,5.50
2018-04-07T07:49:04.836Z,5.97
2018-04-07T07:51:33.025Z,4.67
2018-04-07T07:54:00.620Z,4.77
2018-04-07T07:56:28.807Z,5.10
2018-04-07T07:58:56.396Z,6.10
2018-04-07T08:01:25.240Z,5.73
2018-04-07T08:03:52.784Z,4.80
2018-04-07T08:06:20.388Z,5.37
2018-04-07T08:08:49.443Z,6.10
2018-04-07T08:11:17.816Z,5.87
2018-04-07T08:13:46.705Z,6.90
2018-04-07T08:16:14.255Z,8.50
2018-04-07T08:18:41.918Z,8.17
2018-04-07T08:21:09.524Z,7.40
2018-04-07T08:23:37.460Z,6.77
2018-04-07T08:26:05.017Z,6.37
2018-04-07T08:28:32.705Z,4.97
2018-04-07T08:31:01.052Z,6.07
2018-04-07T08:33:28.599Z,5.77
2018-04-07T08:35:56.192Z,5.80
2018-04-07T08:38:24.302Z,5.80
2018-04-07T08:40:52.441Z,5.93
2018-04-07T08:43:22.134Z,6.00
2018-04-07T08:45:49.736Z,6.33
2018-04-07T08:48:17.735Z,5.73
2018-04-07T08:50:45.280Z,8.00
2018-04-07T08:53:13.572Z,7.10
2018-04-07T08:55:41.612Z,5.77
2018-04-07T08:58:09.175Z,6.77
2018-04-07T09:00:37.470Z,5.40
2018-04-07T09:03:05.791Z,6.57
2018-04-07T09:05:33.762Z,5.93
2018-04-07T09:08:01.617Z,5.13
2018-04-07T09:10:29.879Z,5.33
2018-04-07T09:12:57.430Z,4.97
2018-04-07T09:15:24.983Z,5.37
2018-04-07T09:17:52.571Z,5.03
2018-04-07T09:20:20.421Z,5.23
2018-04-07T09:22:49.005Z,4.93
2018-04-07T09:25:17.998Z,5.10
2018-04-07T09:27:46.120Z,4.23
2018-04-07T09:30:14.288Z,4.53
2018-04-07T09:32:41.880Z,4.53
2018-04-07T09:35:11.000Z,4.70
2018-04-07T09:37:38.541Z,4.67
2018-04-07T09:40:07.224Z,4.60
2018-04-07T09:42:34.773Z,4.57
2018-04-07T09:45:02.756Z,4.30
2018-04-07T09:47:30.587Z,4.47
2018-04-07T09:49:58.146Z,4.27
2018-04-07T09:52:26.733Z,4.03
2018-04-07T09:54:56.077Z,4.10
2018-04-07T09:57:23.626Z,4.03
2018-04-07T09:59:52.223Z,3.87
2018-04-07T10:02:19.973Z,4.13
2018-04-07T10:04:48.859Z,4.20
2018-04-07T10:07:17.724Z,4.43
2018-04-07T10:09:46.841Z,4.10
2018-04-07T10:12:14.449Z,3.50
2018-04-07T10:14:42.009Z,3.87
2018-04-07T10:17:09.640Z,3.83
2018-04-07T10:19:37.532Z,3.87
2018-04-07T10:22:06.043Z,4.00
2018-04-07T10:24:34.272Z,4.13
2018-04-07T10:27:04.167Z,3.90
2018-04-07T10:29:32.267Z,3.93
2018-04-07T10:31:59.816Z,3.60
2018-04-07T10:34:27.979Z,4.00
2018-04-07T10:36:55.520Z,3.77
2018-04-07T10:39:24.556Z,4.50
2018-04-07T10:41:52.500Z,4.43
2018-04-07T10:44:23.325Z,3.87
2018-04-07T10:46:50.869Z,3.80
2018-04-07T10:49:19.159Z,4.30
2018-04-07T10:51:46.704Z,4.77
2018-04-07T10:54:15.272Z,4.40
2018-04-07T10:56:44.425Z,5.17
2018-04-07T10:59:11.980Z,4.40
2018-04-07T11:01:39.524Z,4.67
2018-04-07T11:04:07.616Z,3.97
2018-04-07T11:06:36.548Z,4.53
2018-04-07T11:09:04.313Z,4.50
2018-04-07T11:11:33.342Z,4.23
2018-04-07T11:14:02.953Z,3.53
2018-04-07T11:16:31.945Z,4.20
2018-04-07T11:18:59.544Z,4.60
2018-04-07T11:21:27.228Z,4.13
2018-04-07T11:23:55.857Z,3.80
2018-04-07T11:26:24.084Z,3.90
2018-04-07T11:28:52.692Z,4.33
2018-04-07T11:31:22.624Z,3.70
2018-04-07T11:33:50.931Z,3.70
2018-04-07T11:36:18.550Z,3.73
2018-04-07T11:38:46.104Z,4.00
2018-04-07T11:41:16.045Z,3.93
2018-04-07T11:43:43.593Z,4.30
2018-04-07T11:46:12.440Z,4.57
2018-04-07T11:48:39.989Z,4.07
2018-04-07T11:51:08.843Z,4.57
2018-04-07T11:53:37.619Z,3.90
2018-04-07T11:56:06.475Z,4.30
2018-04-07T11:58:34.910Z,4.50
2018-04-07T12:01:02.502Z,3.77
2018-04-07T12:03:30.673Z,3.87
2018-04-07T12:05:58.481Z,4.30
2018-04-07T12:08:26.032Z,4.03
2018-04-07T12:10:55.058Z,3.13
2018-04-07T12:13:22.900Z,4.10
2018-04-07T12:15:50.492Z,3.87
2018-04-07T12:18:18.042Z,3.97
2018-04-07T12:20:46.448Z,3.60
2018-04-07T12:23:14.342Z,3.90
2018-04-07T12:25:43.149Z,4.07
2018-04-07T12:28:10.699Z,4.20
2018-04-07T12:30:38.305Z,3.77
2018-04-07T12:33:05.855Z,3.87
2018-04-07T12:35:33.451Z,3.77
2018-04-07T12:38:01.003Z,3.80
2018-04-07T12:40:28.584Z,4.17
2018-04-07T12:42:56.627Z,3.70
2018-04-07T12:45:24.218Z,3.57
2018-04-07T12:47:52.102Z,3.70
2018-04-07T12:50:20.572Z,3.77
2018-04-07T12:52:48.416Z,3.50
2018-04-07T12:55:16.558Z,3.13
2018-04-07T12:57:44.149Z,3.60
2018-04-07T13:00:11.745Z,3.73
2018-04-07T13:02:39.860Z,3.50
2018-04-07T13:05:07.408Z,3.30
2018-04-07T13:07:36.056Z,3.40
2018-04-07T13:10:03.877Z,3.27
2018-04-07T13:12:31.543Z,4.17
2018-04-07T13:14:59.538Z,3.40
2018-04-07T13:17:27.109Z,3.77
2018-04-07T13:19:54.992Z,3.40
2018-04-07T13:22:23.533Z,3.50
2018-04-07T13:24:51.399Z,3.77
2018-04-07T13:27:18.996Z,3.30
2018-04-07T13:29:46.563Z,3.27
2018-04-07T13:32:14.721Z,3.60
2018-04-07T13:34:42.990Z,3.60
2018-04-07T13:37:10.540Z,3.00
2018-04-07T13:39:38.155Z,3.17
2018-04-07T13:42:06.114Z,3.17
2018-04-07T13:44:33.672Z,3.30
2018-04-07T13:47:01.524Z,3.10
2018-04-07T13:49:29.070Z,3.27
2018-04-07T13:51:57.640Z,3.17
2018-04-07T13:54:25.242Z,3.13
2018-04-07T13:56:52.789Z,3.37
2018-04-07T13:59:20.492Z,3.13
2018-04-07T14:01:48.041Z,3.20
2018-04-07T14:04:16.567Z,2.90
2018-04-07T14:06:44.795Z,3.10
2018-04-07T14:09:12.669Z,3.10
2018-04-07T14:11:41.280Z,3.33
2018-04-07T14:14:09.785Z,2.67
2018-04-07T14:16:37.527Z,2.80
2018-04-07T14:19:05.083Z,2.90
2018-04-07T14:21:33.880Z,3.30
2018-04-07T14:24:01.425Z,3.37
2018-04-07T14:26:29.509Z,2.60
2018-04-07T14:28:57.104Z,2.70
2018-04-07T14:31:24.657Z,2.67
2018-04-07T14:33:53.622Z,3.33
2018-04-07T14:36:22.930Z,2.90
2018-04-07T14:38:50.473Z,3.00
2018-04-07T14:41:18.110Z,3.17
2018-04-07T14:43:45.725Z,2.97
2018-04-07T14:46:14.491Z,2.57
2018-04-07T14:48:42.541Z,2.67
2018-04-07T14:51:10.164Z,2.93
2018-04-07T14:53:37.708Z,3.50
2018-04-07T14:56:05.260Z,3.00
2018-04-07T14:58:33.948Z,3.17
2018-04-07T15:01:02.046Z,2.87
2018-04-07T15:03:29.596Z,3.27
2018-04-07T15:05:57.335Z,2.93
2018-04-07T15:08:25.964Z,3.20
2018-04-07T15:10:53.724Z,2.57
2018-04-07T15:13:22.439Z,2.83
2018-04-07T15:15:51.017Z,2.90
2018-04-07T15:18:19.063Z,2.97
2018-04-07T15:20:46.628Z,3.30
2018-04-07T15:23:14.216Z,3.10
2018-04-07T15:25:42.521Z,3.17
2018-04-07T15:28:10.262Z,3.20
2018-04-07T15:30:38.029Z,3.10
2018-04-07T15:33:05.581Z,2.90
2018-04-07T15:35:33.192Z,2.83
2018-04-07T15:38:01.452Z,2.70
2018-04-07T15:40:29.352Z,2.93
2018-04-07T15:42:57.217Z,2.77
2018-04-07T15:45:26.141Z,2.87
2018-04-07T15:47:54.212Z,2.93
2018-04-07T15:50:21.941Z,2.80
2018-04-07T15:52:50.394Z,2.97
2018-04-07T15:55:19.420Z,2.77
2018-04-07T15:57:47.008Z,2.87
2018-04-07T16:00:15.627Z,2.73
2018-04-07T16:02:43.695Z,3.03
2018-04-07T16:05:12.627Z,2.60
2018-04-07T16:07:40.248Z,3.17
2018-04-07T16:10:07.876Z,3.33
2018-04-07T16:12:35.984Z,3.20
2018-04-07T16:15:03.537Z,3.00
2018-04-07T16:17:31.151Z,3.00
2018-04-07T16:19:58.709Z,3.03
2018-04-07T16:22:26.593Z,3.27
2018-04-07T16:24:54.140Z,2.93
2018-04-07T16:27:21.682Z,3.00
2018-04-07T16:29:50.670Z,2.97
2018-04-07T16:32:18.239Z,3.03
2018-04-07T16:34:45.820Z,3.17
2018-04-07T16:37:13.421Z,3.13
2018-04-07T16:39:41.385Z,3.20
2018-04-07T16:42:09.622Z,4.37
2018-04-07T16:44:37.968Z,3.10
2018-04-07T16:47:06.333Z,3.40
2018-04-07T16:49:34.832Z,3.60
2018-04-07T16:52:02.376Z,3.10
2018-04-07T16:54:29.996Z,2.97
2018-04-07T16:56:58.420Z,2.90
2018-04-07T16:59:25.968Z,3.63
2018-04-07T17:01:54.273Z,3.20
2018-04-07T17:04:22.362Z,3.97
2018-04-07T17:06:49.917Z,4.80
2018-04-07T17:09:17.522Z,5.00
2018-04-07T17:11:46.166Z,5.27
2018-04-07T17:14:13.941Z,5.70
2018-04-07T17:16:41.898Z,5.10
2018-04-07T17:19:09.865Z,5.73
2018-04-07T17:21:37.473Z,6.97
2018-04-07T17:24:05.112Z,7.40
2018-04-07T17:26:33.464Z,10.07
2018-04-07T17:29:01.594Z,13.40
2018-04-07T17:31:29.968Z,12.87
2018-04-07T17:33:59.112Z,13.30
2018-04-07T17:36:26.667Z,11.03
2018-04-07T17:38:54.480Z,6.73
2018-04-07T17:41:23.018Z,7.33
2018-04-07T17:43:51.316Z,6.90
2018-04-07T17:46:21.188Z,7.50
2018-04-07T17:48:49.254Z,6.40
2018-04-07T17:51:16.804Z,6.53
2018-04-07T17:53:45.711Z,6.07
2018-04-07T17:56:13.598Z,5.87
2018-04-07T17:58:41.389Z,6.60
2018-04-07T18:01:10.234Z,6.07
2018-04-07T18:03:38.176Z,6.07
2018-04-07T18:06:06.366Z,6.03
2018-04-07T18:08:34.924Z,6.30
2018-04-07T18:11:03.566Z,6.43
2018-04-07T18:13:31.617Z,8.47
2018-04-07T18:16:01.857Z,8.13
2018-04-07T18:18:30.811Z,8.50
2018-04-07T18:20:59.184Z,7.20
2018-04-07T18:23:26.761Z,7.00
2018-04-07T18:25:56.282Z,8.50
2018-04-07T18:28:25.572Z,12.30
2018-04-07T18:30:53.353Z,8.33
2018-04-07T18:33:22.185Z,7.20
2018-04-07T18:35:50.208Z,7.93
2018-04-07T18:38:18.222Z,9.37
2018-04-07T18:40:46.354Z,10.60
2018-04-07T18:43:15.321Z,10.03
2018-04-07T18:45:42.893Z,9.73
2018-04-07T18:48:12.452Z,9.83
2018-04-07T18:50:40.008Z,9.53
2018-04-07T18:53:08.571Z,9.37
2018-04-07T18:55:36.325Z,10.00
2018-04-07T18:58:04.882Z,9.80
2018-04-07T19:00:32.965Z,10.10
2018-04-07T19:03:00.904Z,8.93
2018-04-07T19:05:29.238Z,8.87
2018-04-07T19:07:56.924Z,8.87
2018-04-07T19:10:25.253Z,10.00
2018-04-07T19:12:54.739Z,9.57
2018-04-07T19:15:22.785Z,10.10
2018-04-07T19:17:51.559Z,10.37
2018-04-07T19:20:19.116Z,12.30
2018-04-07T19:22:47.751Z,13.20
2018-04-07T19:25:15.625Z,14.90
2018-04-07T19:27:43.557Z,16.47
2018-04-07T19:30:11.405Z,18.60
2018-04-07T19:32:39.020Z,16.07
2018-04-07T19:35:06.880Z,14.83
2018-04-07T19:37:34.956Z,14.00
2018-04-07T19:40:03.942Z,15.60
2018-04-07T19:42:32.320Z,12.93
2018-04-07T19:45:01.760Z,12.77
2018-04-07T19:47:29.320Z,14.87
2018-04-07T19:49:57.306Z,13.97
2018-04-07T19:52:25.532Z,13.60
2018-04-07T19:54:53.225Z,12.57
2018-04-07T19:57:21.054Z,12.17
2018-04-07T19:59:49.396Z,13.50
2018-04-07T20:02:18.397Z,13.00
2018-04-07T20:04:46.977Z,13.00
2018-04-07T20:07:14.537Z,14.13
2018-04-07T20:09:42.132Z,16.90
2018-04-07T20:12:10.295Z,17.93
2018-04-07T20:14:37.916Z,18.30
2018-04-07T20:17:05.555Z,21.37
2018-04-07T20:19:33.573Z,23.53
2018-04-07T20:22:01.514Z,21.30
2018-04-07T20:24:29.068Z,19.83
2018-04-07T20:26:58.272Z,17.33
2018-04-07T20:29:26.858Z,15.93
2018-04-07T20:31:55.589Z,17.70
2018-04-07T20:34:23.160Z,16.43
2018-04-07T20:36:51.453Z,16.37
2018-04-07T20:39:19.844Z,15.30
2018-04-07T20:41:49.063Z,15.47
2018-04-07T20:44:28.347Z,14.43
2018-04-07T20:46:56.495Z,20.10
2018-04-07T20:49:24.508Z,20.93
2018-04-07T20:51:53.085Z,19.90
2018-04-07T20:54:21.596Z,19.73
2018-04-07T20:56:50.036Z,20.07
2018-04-07T20:59:17.664Z,20.30
2018-04-07T21:01:47.591Z,18.00
2018-04-07T21:04:15.728Z,17.27
2018-04-07T21:06:43.972Z,15.53
2018-04-07T21:09:11.592Z,15.27
2018-04-07T21:11:39.478Z,16.13
2018-04-07T21:14:08.149Z,16.80
2018-04-07T21:16:36.758Z,18.03
2018-04-07T21:19:04.808Z,17.07
2018-04-07T21:21:32.364Z,16.57
2018-04-07T21:24:00.193Z,16.20
2018-04-07T21:26:28.536Z,16.10
2018-04-07T21:28:56.097Z,16.30
2018-04-07T21:31:23.657Z,16.13
2018-04-07T21:33:51.644Z,16.93
2018-04-07T21:36:19.208Z,15.93
2018-04-07T21:38:47.323Z,15.70
2018-04-07T21:41:15.116Z,17.03
2018-04-07T21:43:42.858Z,17.27
2018-04-07T21:46:10.424Z,18.23
2018-04-07T21:48:39.437Z,18.63
2018-04-07T21:51:08.354Z,18.50
2018-04-07T21:53:35.984Z,17.30
2018-04-07T21:56:03.564Z,16.63
2018-04-07T21:58:31.775Z,17.97
2018-04-07T22:00:59.608Z,18.37
2018-04-07T22:03:27.232Z,18.83
2018-04-07T22:05:55.488Z,17.90
2018-04-07T22:08:23.380Z,15.87
2018-04-07T22:10:51.525Z,15.47
2018-04-07T22:13:19.484Z,15.07
2018-04-07T22:15:47.704Z,14.37
2018-04-07T22:18:15.268Z,15.30
2018-04-07T22:20:42.855Z,14.23
2018-04-07T22:23:10.473Z,14.77
2018-04-07T22:25:38.056Z,14.47
2018-04-07T22:28:05.689Z,14.67
2018-04-07T22:30:34.048Z,15.93
2018-04-07T22:33:01.630Z,16.20
2018-04-07T22:35:29.280Z,15.50
2018-04-07T22:37:57.033Z,14.80
2018-04-07T22:40:24.616Z,16.10
2018-04-07T22:42:52.560Z,15.80
2018-04-07T22:45:20.181Z,15.53
2018-04-07T22:47:47.991Z,14.93
2018-04-07T22:50:16.384Z,13.30
2018-04-07T22:52:44.295Z,14.27
2018-04-07T22:55:11.896Z,14.90
2018-04-07T22:57:39.451Z,14.40
2018-04-07T23:00:07.098Z,14.27
2018-04-07T23:02:35.608Z,15.10
2018-04-07T23:05:03.509Z,14.30
2018-04-07T23:07:31.590Z,13.97
2018-04-07T23:09:59.705Z,13.60
2018-04-07T23:12:27.273Z,12.90
2018-04-07T23:14:54.828Z,12.60
2018-04-07T23:17:22.452Z,12.60
2018-04-07T23:19:50.293Z,11.73
2018-04-07T23:22:18.127Z,11.10
2018-04-07T23:24:45.736Z,10.20
2018-04-07T23:27:13.336Z,10.53
2018-04-07T23:29:41.328Z,10.10
2018-04-07T23:32:09.371Z,11.20
2018-04-07T23:34:37.355Z,11.50
2018-04-07T23:37:04.968Z,12.10
2018-04-07T23:39:32.572Z,11.63
2018-04-07T23:42:00.168Z,12.57
2018-04-07T23:44:27.724Z,12.67
2018-04-07T23:46:56.132Z,13.70
2018-04-07T23:49:23.684Z,14.27
2018-04-07T23:51:52.063Z,14.47
2018-04-07T23:54:20.347Z,14.03
2018-04-07T23:56:47.952Z,12.07
2018-04-07T23:59:15.518Z,12.33
